createdAt,value
2022-10-14T00:00:13.195Z,20.7
2022-10-14T00:01:15.419Z,20.7
2022-10-14T00:02:18.049Z,20.7
2022-10-14T00:03:20.829Z,20.7
2022-10-14T00:04:23.030Z,20.7
2022-10-14T00:05:24.945Z,20.8
2022-10-14T00:06:26.858Z,20.8
2022-10-14T00:07:29.356Z,20.8
2022-10-14T00:08:31.554Z,20.8
2022-10-14T00:09:33.486Z,20.8
2022-10-14T00:10:35.953Z,20.8
2022-10-14T00:11:38.438Z,20.9
2022-10-14T00:12:40.379Z,20.7
2022-10-14T00:13:42.853Z,20.9
2022-10-14T00:14:45.327Z,20.9
2022-10-14T00:15:47.515Z,20.8
2022-10-14T00:16:49.464Z,20.9
2022-10-14T00:17:51.976Z,20.9
2022-10-14T00:18:54.457Z,20.9
2022-10-14T00:19:56.932Z,20.7
2022-10-14T00:20:59.400Z,20.8
2022-10-14T00:22:01.569Z,20.9
2022-10-14T00:23:03.502Z,20.8
2022-10-14T00:24:05.467Z,20.8
2022-10-14T00:25:07.949Z,20.9
2022-10-14T00:26:10.411Z,20.9
2022-10-14T00:27:12.341Z,20.9
2022-10-14T00:28:14.929Z,21
2022-10-14T00:29:17.344Z,20.9
2022-10-14T00:30:19.984Z,20.9
2022-10-14T00:31:22.184Z,21
2022-10-14T00:32:24.706Z,20.8
2022-10-14T00:33:27.239Z,20.8
2022-10-14T00:34:31.182Z,20.9
2022-10-14T00:35:33.358Z,20.9
2022-10-14T00:36:35.526Z,20.9
2022-10-14T00:37:38.026Z,20.8
2022-10-14T00:38:40.502Z,20.9
2022-10-14T00:39:42.981Z,20.9
2022-10-14T00:40:45.441Z,20.9
2022-10-14T00:41:47.915Z,20.8
2022-10-14T00:42:49.527Z,20.8
2022-10-14T00:43:52.019Z,21
2022-10-14T00:44:54.490Z,21
2022-10-14T00:45:56.959Z,20.9
2022-10-14T00:46:59.138Z,21
2022-10-14T00:48:01.376Z,21.1
2022-10-14T00:49:03.897Z,20.9
2022-10-14T00:50:05.827Z,20.9
2022-10-14T00:51:08.260Z,21
2022-10-14T00:52:10.726Z,21
2022-10-14T00:53:13.192Z,21
2022-10-14T00:54:15.402Z,21
2022-10-14T00:55:17.590Z,21.1
2022-10-14T00:56:20.061Z,21
2022-10-14T00:57:23.370Z,20.9
2022-10-14T00:58:26.299Z,20.9
2022-10-14T00:59:28.485Z,21.1
2022-10-14T01:00:31.075Z,21
2022-10-14T01:01:33.517Z,21.1
2022-10-14T01:02:36.018Z,21.1
2022-10-14T01:03:38.521Z,21
2022-10-14T01:04:41.038Z,20.9
2022-10-14T01:05:43.665Z,21
2022-10-14T01:06:46.136Z,20.9
2022-10-14T01:07:48.606Z,21
2022-10-14T01:08:50.802Z,21
2022-10-14T01:09:53.289Z,21
2022-10-14T01:10:55.753Z,21
2022-10-14T01:13:03.205Z,21
2022-10-14T01:14:05.685Z,21.1
2022-10-14T01:15:08.204Z,21
2022-10-14T01:16:10.493Z,21
2022-10-14T01:17:12.411Z,21
2022-10-14T01:18:14.622Z,21
2022-10-14T01:19:16.812Z,21.1
2022-10-14T01:20:19.348Z,21
2022-10-14T01:21:21.262Z,21
2022-10-14T01:22:24.717Z,21
2022-10-14T01:23:28.974Z,21
2022-10-14T01:24:31.180Z,21.1
2022-10-14T01:25:33.370Z,21.1
2022-10-14T01:26:36.214Z,21
2022-10-14T01:27:38.415Z,21
2022-10-14T01:28:40.757Z,21
2022-10-14T01:29:43.267Z,21.1
2022-10-14T01:30:45.189Z,21
2022-10-14T01:31:47.086Z,21.1
2022-10-14T01:32:49.294Z,21
2022-10-14T01:33:51.208Z,21.1
2022-10-14T01:34:53.702Z,21.1
2022-10-14T01:35:56.212Z,21.1
2022-10-14T01:36:58.686Z,21.1
2022-10-14T01:38:00.877Z,21
2022-10-14T01:39:03.090Z,21.1
2022-10-14T01:40:05.556Z,21.1
2022-10-14T01:41:07.475Z,21.1
2022-10-14T01:42:09.938Z,21.1
2022-10-14T01:43:12.412Z,21.1
2022-10-14T01:44:14.880Z,21.1
2022-10-14T01:45:17.350Z,21
2022-10-14T01:46:19.836Z,21.1
2022-10-14T01:47:22.029Z,21
2022-10-14T01:48:24.229Z,21.1
2022-10-14T01:49:26.428Z,21.2
2022-10-14T01:50:28.925Z,21.2
2022-10-14T01:51:31.446Z,21
2022-10-14T01:52:33.917Z,21.1
2022-10-14T01:53:36.093Z,21.1
2022-10-14T01:54:38.301Z,21.1
2022-10-14T01:55:40.783Z,21.1
2022-10-14T01:56:43.244Z,21.1
2022-10-14T01:57:45.716Z,21.1
2022-10-14T01:58:47.908Z,21
2022-10-14T01:59:50.103Z,21.1
2022-10-14T02:00:52.575Z,21
2022-10-14T02:01:55.225Z,21.1
2022-10-14T02:02:57.847Z,21.1
2022-10-14T02:04:00.328Z,21.2
2022-10-14T02:05:02.792Z,21.1
2022-10-14T02:06:05.008Z,21.1
2022-10-14T02:07:07.573Z,21.1
2022-10-14T02:08:09.764Z,21.1
2022-10-14T02:09:12.238Z,21
2022-10-14T02:10:14.409Z,21
2022-10-14T02:11:16.894Z,21.1
2022-10-14T02:12:20.058Z,21.2
2022-10-14T02:13:23.775Z,21.1
2022-10-14T02:14:25.968Z,21.1
2022-10-14T02:15:28.188Z,21.1
2022-10-14T02:16:30.375Z,21.2
2022-10-14T02:17:32.865Z,21
2022-10-14T02:18:35.052Z,21.2
2022-10-14T02:19:37.253Z,21.2
2022-10-14T02:20:39.448Z,21.1
2022-10-14T02:21:41.415Z,21
2022-10-14T02:22:43.944Z,21.1
2022-10-14T02:23:46.416Z,21.2
2022-10-14T02:24:48.877Z,21.1
2022-10-14T02:25:51.351Z,21.2
2022-10-14T02:26:53.546Z,21.2
2022-10-14T02:27:55.449Z,21.1
2022-10-14T02:28:57.783Z,21.2
2022-10-14T02:30:00.404Z,21.1
2022-10-14T02:31:02.588Z,21.1
2022-10-14T02:32:05.065Z,21.2
2022-10-14T02:33:07.275Z,21.2
2022-10-14T02:34:09.195Z,21.1
2022-10-14T02:35:11.386Z,21.1
2022-10-14T02:36:13.585Z,21.2
2022-10-14T02:37:15.502Z,21.1
2022-10-14T02:38:18.032Z,21.1
2022-10-14T02:39:19.688Z,21.2
2022-10-14T02:40:22.154Z,21.2
2022-10-14T02:41:24.623Z,21.1
2022-10-14T02:42:26.531Z,21.2
2022-10-14T02:43:28.729Z,21.1
2022-10-14T02:44:30.967Z,21.2
2022-10-14T02:45:33.444Z,21.2
2022-10-14T02:46:35.370Z,21.1
2022-10-14T02:47:37.845Z,21.1
2022-10-14T02:48:40.040Z,21.2
2022-10-14T02:49:42.247Z,21.2
2022-10-14T02:50:44.732Z,21.1
2022-10-14T02:51:47.199Z,21.1
2022-10-14T02:52:49.426Z,21.2
2022-10-14T02:53:51.953Z,21.1
2022-10-14T02:54:54.148Z,21
2022-10-14T02:55:56.622Z,21.3
2022-10-14T02:56:58.827Z,21.2
2022-10-14T02:58:01.069Z,21.1
2022-10-14T02:59:03.267Z,21.2
2022-10-14T03:00:05.191Z,21.2
2022-10-14T03:01:07.661Z,21.1
2022-10-14T03:02:10.278Z,21.2
2022-10-14T03:03:12.457Z,21.1
2022-10-14T03:04:14.411Z,21.1
2022-10-14T03:05:16.597Z,21.1
2022-10-14T03:06:19.078Z,21
2022-10-14T03:07:21.267Z,21.1
2022-10-14T03:08:23.518Z,21.1
2022-10-14T03:09:25.771Z,21.1
2022-10-14T03:10:27.948Z,21.1
2022-10-14T03:11:30.136Z,21.1
2022-10-14T03:12:32.387Z,20.9
2022-10-14T03:13:34.860Z,21.1
2022-10-14T03:14:37.336Z,21
2022-10-14T03:15:39.532Z,20.9
2022-10-14T03:16:42.000Z,20.9
2022-10-14T03:17:44.224Z,21
2022-10-14T03:18:46.518Z,20.9
2022-10-14T03:19:49.055Z,21
2022-10-14T03:20:50.722Z,21
2022-10-14T03:21:52.925Z,21
2022-10-14T03:22:55.416Z,21
2022-10-14T03:23:57.614Z,20.8
2022-10-14T03:25:00.168Z,20.9
2022-10-14T03:26:02.633Z,20.7
2022-10-14T03:27:04.833Z,20.8
2022-10-14T03:28:06.767Z,20.8
2022-10-14T03:29:08.976Z,20.9
2022-10-14T03:30:11.511Z,20.9
2022-10-14T03:31:14.058Z,20.9
2022-10-14T03:32:16.248Z,20.8
2022-10-14T03:34:23.438Z,20.8
2022-10-14T03:35:25.656Z,20.8
2022-10-14T03:36:28.128Z,20.7
2022-10-14T03:37:30.614Z,20.7
2022-10-14T03:38:32.807Z,20.8
2022-10-14T03:39:35.749Z,20.7
2022-10-14T03:40:38.307Z,20.8
2022-10-14T03:41:40.855Z,20.7
2022-10-14T03:42:42.537Z,20.7
2022-10-14T03:43:45.076Z,20.7
2022-10-14T03:44:47.579Z,20.8
2022-10-14T03:45:50.068Z,20.8
2022-10-14T03:46:51.999Z,20.7
2022-10-14T03:47:54.475Z,20.6
2022-10-14T03:48:56.424Z,20.7
2022-10-14T03:49:58.919Z,20.8
2022-10-14T03:51:01.430Z,20.7
2022-10-14T03:52:03.898Z,20.8
2022-10-14T03:53:06.110Z,20.7
2022-10-14T03:54:08.024Z,20.7
2022-10-14T03:55:10.523Z,20.8
2022-10-14T03:56:13.039Z,20.6
2022-10-14T03:57:15.510Z,20.8
2022-10-14T03:58:17.987Z,20.7
2022-10-14T03:59:20.449Z,20.7
2022-10-14T04:00:22.939Z,20.6
2022-10-14T04:01:24.940Z,20.7
2022-10-14T04:02:27.403Z,20.6
2022-10-14T04:03:29.866Z,20.6
2022-10-14T04:04:32.351Z,20.7
2022-10-14T04:05:34.603Z,20.7
2022-10-14T04:06:37.092Z,20.7
2022-10-14T04:07:39.018Z,20.7
2022-10-14T04:08:41.515Z,20.7
2022-10-14T04:09:43.714Z,20.8
2022-10-14T04:10:46.215Z,20.6
2022-10-14T04:11:48.454Z,20.6
2022-10-14T04:12:50.928Z,20.7
2022-10-14T04:13:53.403Z,20.6
2022-10-14T04:14:55.874Z,20.5
2022-10-14T04:15:58.339Z,20.5
2022-10-14T04:17:00.528Z,20.7
2022-10-14T04:18:02.432Z,20.7
2022-10-14T04:19:04.903Z,20.7
2022-10-14T04:20:07.094Z,20.7
2022-10-14T04:21:09.579Z,20.6
2022-10-14T04:22:11.803Z,20.6
2022-10-14T04:23:14.010Z,20.7
2022-10-14T04:24:16.483Z,20.5
2022-10-14T04:25:18.972Z,20.7
2022-10-14T04:26:21.189Z,20.6
2022-10-14T04:27:23.714Z,20.5
2022-10-14T04:28:25.473Z,20.7
2022-10-14T04:29:27.900Z,20.6
2022-10-14T04:30:30.390Z,20.7
2022-10-14T04:31:32.855Z,20.5
2022-10-14T04:32:35.069Z,20.7
2022-10-14T04:33:37.533Z,20.7
2022-10-14T04:34:40.073Z,20.7
2022-10-14T04:35:42.262Z,20.5
2022-10-14T04:36:44.448Z,20.6
2022-10-14T04:37:46.945Z,20.6
2022-10-14T04:38:48.849Z,20.6
2022-10-14T04:39:51.047Z,20.7
2022-10-14T04:40:53.243Z,20.6
2022-10-14T04:41:55.187Z,20.6
2022-10-14T04:42:57.710Z,20.6
2022-10-14T04:44:00.192Z,20.5
2022-10-14T04:45:02.661Z,20.7
2022-10-14T04:46:05.134Z,20.7
2022-10-14T04:47:06.784Z,20.6
2022-10-14T04:48:09.249Z,20.6
2022-10-14T04:49:11.428Z,20.6
2022-10-14T04:50:13.357Z,20.6
2022-10-14T04:51:15.830Z,20.6
2022-10-14T04:52:18.324Z,20.5
2022-10-14T04:53:23.029Z,20.7
2022-10-14T04:54:25.520Z,20.5
2022-10-14T04:55:27.450Z,20.5
2022-10-14T04:56:29.913Z,20.5
2022-10-14T04:57:32.145Z,20.5
2022-10-14T04:58:34.658Z,20.6
2022-10-14T04:59:37.153Z,20.5
2022-10-14T05:00:39.350Z,20.6
2022-10-14T05:01:41.294Z,20.6
2022-10-14T05:02:43.925Z,20.6
2022-10-14T05:03:46.129Z,20.5
2022-10-14T05:04:48.061Z,20.7
2022-10-14T05:05:50.262Z,20.6
2022-10-14T05:06:52.731Z,20.4
2022-10-14T05:07:55.226Z,20.6
2022-10-14T05:08:57.708Z,20.5
2022-10-14T05:09:59.910Z,20.5
2022-10-14T05:11:01.828Z,20.6
2022-10-14T05:12:04.320Z,20.6
2022-10-14T05:13:06.541Z,20.7
2022-10-14T05:14:09.072Z,20.5
2022-10-14T05:15:11.272Z,20.5
2022-10-14T05:16:13.795Z,20.6
2022-10-14T05:17:16.264Z,20.6
2022-10-14T05:18:18.755Z,20.6
2022-10-14T05:19:20.974Z,20.5
2022-10-14T05:20:23.561Z,20.6
2022-10-14T05:21:25.485Z,20.7
2022-10-14T05:22:27.685Z,20.5
2022-10-14T05:23:30.167Z,20.5
2022-10-14T05:24:32.086Z,20.5
2022-10-14T05:25:34.295Z,20.5
2022-10-14T05:26:36.760Z,20.5
2022-10-14T05:27:38.967Z,20.7
2022-10-14T05:28:41.553Z,20.5
2022-10-14T05:29:44.307Z,20.5
2022-10-14T05:30:46.778Z,20.7
2022-10-14T05:31:49.263Z,20.5
2022-10-14T05:32:51.454Z,20.6
2022-10-14T05:33:53.931Z,20.7
2022-10-14T05:34:56.172Z,20.4
2022-10-14T05:36:00.055Z,20.6
2022-10-14T05:37:02.313Z,20.5
2022-10-14T05:38:05.048Z,20.5
2022-10-14T05:39:07.543Z,20.6
2022-10-14T05:40:10.099Z,20.6
2022-10-14T05:41:12.567Z,20.7
2022-10-14T05:42:15.040Z,20.6
2022-10-14T05:43:17.232Z,20.6
2022-10-14T05:44:19.455Z,20.5
2022-10-14T05:45:21.695Z,20.6
2022-10-14T05:46:23.887Z,20.6
2022-10-14T05:47:26.370Z,20.4
2022-10-14T05:48:28.841Z,20.5
2022-10-14T05:49:31.317Z,20.5
2022-10-14T05:50:32.963Z,20.5
2022-10-14T05:51:35.474Z,20.5
2022-10-14T05:52:37.940Z,20.5
2022-10-14T05:53:40.412Z,20.5
2022-10-14T05:54:42.061Z,20.6
2022-10-14T05:55:44.283Z,20.6
2022-10-14T05:56:45.916Z,20.5
2022-10-14T05:57:47.812Z,20.5
2022-10-14T05:58:50.404Z,20.5
2022-10-14T05:59:52.634Z,20.5
2022-10-14T06:00:55.191Z,20.6
2022-10-14T06:01:57.403Z,20.5
2022-10-14T06:02:59.491Z,20.5
2022-10-14T06:04:02.181Z,20.5
2022-10-14T06:05:04.391Z,20.6
2022-10-14T06:06:06.860Z,20.5
2022-10-14T06:07:09.075Z,20.5
2022-10-14T06:08:11.577Z,20.6
2022-10-14T06:09:13.230Z,20.6
2022-10-14T06:10:15.469Z,20.5
2022-10-14T06:11:17.980Z,20.6
2022-10-14T06:12:20.979Z,20.6
2022-10-14T06:13:25.156Z,20.6
2022-10-14T06:14:27.636Z,20.5
2022-10-14T06:15:29.590Z,20.5
2022-10-14T06:16:32.175Z,20.5
2022-10-14T06:17:34.105Z,20.6
2022-10-14T06:18:36.318Z,20.4
2022-10-14T06:19:38.789Z,20.5
2022-10-14T06:20:41.280Z,20.6
2022-10-14T06:21:43.759Z,20.6
2022-10-14T06:22:46.259Z,20.7
2022-10-14T06:23:48.722Z,20.4
2022-10-14T06:24:50.675Z,20.5
2022-10-14T06:25:53.155Z,20.4
2022-10-14T06:26:55.098Z,20.5
2022-10-14T06:27:57.568Z,20.6
2022-10-14T06:28:59.865Z,20.6
2022-10-14T06:30:02.345Z,20.5
2022-10-14T06:31:04.316Z,20.4
2022-10-14T06:32:06.862Z,20.5
2022-10-14T06:33:09.331Z,20.5
2022-10-14T06:34:11.816Z,20.5
2022-10-14T06:35:14.004Z,20.5
2022-10-14T06:36:16.500Z,20.4
2022-10-14T06:37:18.990Z,20.4
2022-10-14T06:38:20.894Z,20.6
2022-10-14T06:39:22.808Z,20.5
2022-10-14T06:40:25.021Z,20.7
2022-10-14T06:41:27.699Z,20.4
2022-10-14T06:42:30.206Z,20.6
2022-10-14T06:43:32.673Z,20.5
2022-10-14T06:44:35.163Z,20.5
2022-10-14T06:45:37.649Z,20.4
2022-10-14T06:46:39.887Z,20.5
2022-10-14T06:47:42.425Z,20.4
2022-10-14T06:49:49.069Z,20.5
2022-10-14T06:50:51.564Z,20.5
2022-10-14T06:51:53.761Z,20.4
2022-10-14T06:52:56.236Z,20.6
2022-10-14T06:53:58.429Z,20.5
2022-10-14T06:55:00.910Z,20.5
2022-10-14T06:56:03.400Z,20.4
2022-10-14T06:57:05.588Z,20.4
2022-10-14T06:58:07.858Z,20.6
2022-10-14T06:59:10.063Z,20.5
2022-10-14T07:00:12.264Z,20.4
2022-10-14T07:01:14.866Z,20.6
2022-10-14T07:02:17.619Z,20.5
2022-10-14T07:03:20.591Z,20.6
2022-10-14T07:04:22.791Z,20.5
2022-10-14T07:05:25.032Z,20.6
2022-10-14T07:06:27.251Z,20.4
2022-10-14T07:07:29.204Z,20.5
2022-10-14T07:08:31.696Z,20.5
2022-10-14T07:09:34.205Z,20.5
2022-10-14T07:10:36.419Z,20.6
2022-10-14T07:11:38.931Z,20.5
2022-10-14T07:12:40.643Z,20.5
2022-10-14T07:13:43.141Z,20.4
2022-10-14T07:14:45.628Z,20.5
2022-10-14T07:15:48.115Z,20.5
2022-10-14T07:16:50.305Z,20.5
2022-10-14T07:17:52.540Z,20.5
2022-10-14T07:18:55.082Z,20.5
2022-10-14T07:19:57.564Z,20.5
2022-10-14T07:20:59.787Z,20.5
2022-10-14T07:22:02.054Z,20.4
2022-10-14T07:23:04.567Z,20.5
2022-10-14T07:24:06.494Z,20.4
2022-10-14T07:25:08.677Z,20.4
2022-10-14T07:26:11.175Z,20.4
2022-10-14T07:27:13.106Z,20.5
2022-10-14T07:28:15.462Z,20.4
2022-10-14T07:29:17.664Z,20.6
2022-10-14T07:30:20.144Z,20.4
2022-10-14T07:31:22.346Z,20.4
2022-10-14T07:32:24.558Z,20.4
2022-10-14T07:33:26.632Z,20.4
2022-10-14T07:34:29.182Z,20.5
2022-10-14T07:35:31.666Z,20.5
2022-10-14T07:36:34.152Z,20.5
2022-10-14T07:37:36.647Z,20.4
2022-10-14T07:38:39.119Z,20.5
2022-10-14T07:39:41.305Z,20.4
2022-10-14T07:40:43.510Z,20.5
2022-10-14T07:41:45.459Z,20.5
2022-10-14T07:42:47.718Z,20.4
2022-10-14T07:43:49.923Z,20.5
2022-10-14T07:44:51.876Z,20.4
2022-10-14T07:45:53.789Z,20.4
2022-10-14T07:46:56.274Z,20.4
2022-10-14T07:47:58.764Z,20.3
2022-10-14T07:49:00.433Z,20.5
2022-10-14T07:50:02.971Z,20.3
2022-10-14T07:51:05.456Z,20.4
2022-10-14T07:52:07.971Z,20.3
2022-10-14T07:53:10.220Z,20.4
2022-10-14T07:54:12.401Z,20.4
2022-10-14T07:55:14.606Z,20.5
2022-10-14T07:56:17.091Z,20.3
2022-10-14T07:57:19.641Z,20.5
2022-10-14T07:58:23.964Z,20.5
2022-10-14T07:59:25.889Z,20.3
2022-10-14T08:00:28.712Z,20.5
2022-10-14T08:01:31.270Z,20.6
2022-10-14T08:02:34.053Z,20.3
2022-10-14T08:03:36.664Z,20.5
2022-10-14T08:04:38.620Z,20.5
2022-10-14T08:05:41.150Z,20.4
2022-10-14T08:06:43.636Z,20.4
2022-10-14T08:07:46.096Z,20.3
2022-10-14T08:08:47.751Z,20.4
2022-10-14T08:09:50.304Z,20.5
2022-10-14T08:10:52.777Z,20.3
2022-10-14T08:11:54.696Z,20.4
2022-10-14T08:12:56.898Z,20.5
2022-10-14T08:13:59.102Z,20.4
2022-10-14T08:15:01.320Z,20.4
2022-10-14T08:16:03.572Z,20.4
2022-10-14T08:17:05.571Z,20.4
2022-10-14T08:18:07.796Z,20.4
2022-10-14T08:20:15.208Z,20.4
2022-10-14T08:21:18.092Z,20.4
2022-10-14T08:22:20.910Z,20.4
2022-10-14T08:23:24.694Z,20.4
2022-10-14T08:24:27.170Z,20.3
2022-10-14T08:25:29.647Z,20.4
2022-10-14T08:26:32.125Z,20.4
2022-10-14T08:27:34.624Z,20.4
2022-10-14T08:28:36.627Z,20.4
2022-10-14T08:29:39.287Z,20.4
2022-10-14T08:30:40.944Z,20.4
2022-10-14T08:31:43.176Z,20.4
2022-10-14T08:32:45.648Z,20.4
2022-10-14T08:33:47.865Z,20.2
2022-10-14T08:34:50.090Z,20.4
2022-10-14T08:35:54.772Z,20.4
2022-10-14T08:36:57.558Z,20.3
2022-10-14T08:38:00.049Z,20.4
2022-10-14T08:39:02.646Z,20.3
2022-10-14T08:40:05.096Z,20.4
2022-10-14T08:41:07.297Z,20.6
2022-10-14T08:42:09.778Z,20.4
2022-10-14T08:43:12.258Z,20.4
2022-10-14T08:44:14.734Z,20.2
2022-10-14T08:45:17.240Z,20.3
2022-10-14T08:46:19.180Z,20.5
2022-10-14T08:47:21.420Z,20.3
2022-10-14T08:48:23.635Z,20.4
2022-10-14T08:49:25.833Z,20.5
2022-10-14T08:50:28.336Z,20.3
2022-10-14T08:51:30.841Z,20.4
2022-10-14T08:53:38.370Z,20.3
2022-10-14T08:54:40.301Z,20.4
2022-10-14T08:55:41.913Z,20.4
2022-10-14T08:56:43.842Z,20.3
2022-10-14T08:57:46.307Z,20.2
2022-10-14T08:58:48.785Z,20.4
2022-10-14T08:59:51.255Z,20.4
2022-10-14T09:00:53.443Z,20.5
2022-10-14T09:01:55.649Z,20.4
2022-10-14T09:02:57.976Z,20.4
2022-10-14T09:04:00.454Z,20.3
2022-10-14T09:05:02.502Z,20.4
2022-10-14T09:06:04.422Z,20.4
2022-10-14T09:07:07.194Z,20.3
2022-10-14T09:08:09.742Z,20.4
2022-10-14T09:09:11.672Z,20.3
2022-10-14T09:10:13.592Z,20.4
2022-10-14T09:11:15.807Z,20.3
2022-10-14T09:12:18.288Z,20.5
2022-10-14T09:13:22.135Z,20.3
2022-10-14T09:14:24.329Z,20.6
2022-10-14T09:15:26.262Z,20.4
2022-10-14T09:16:28.479Z,20.4
2022-10-14T09:18:35.693Z,20.3
2022-10-14T09:19:38.205Z,20.4
2022-10-14T09:20:40.408Z,20.3
2022-10-14T09:22:47.151Z,20.4
2022-10-14T09:23:49.602Z,20.4
2022-10-14T09:24:51.502Z,20.2
2022-10-14T09:25:53.703Z,20.3
2022-10-14T09:27:59.473Z,20.3
2022-10-14T09:29:02.093Z,20.4
2022-10-14T09:30:04.519Z,20.4
2022-10-14T09:31:06.522Z,20.4
2022-10-14T09:32:08.699Z,20.4
2022-10-14T09:33:10.897Z,20.4
2022-10-14T09:34:13.392Z,20.3
2022-10-14T09:35:15.333Z,20.4
2022-10-14T09:36:17.815Z,20.3
2022-10-14T09:37:20.850Z,20.4
2022-10-14T09:38:24.727Z,20.4
2022-10-14T09:39:27.234Z,20.3
2022-10-14T09:40:29.163Z,20.4
2022-10-14T09:41:30.549Z,20.5
2022-10-14T09:42:32.231Z,20.4
2022-10-14T09:43:34.557Z,20.4
2022-10-14T09:44:37.266Z,20.3
2022-10-14T09:45:39.767Z,20.4
2022-10-14T09:46:42.093Z,20.4
2022-10-14T09:47:44.608Z,20.3
2022-10-14T09:48:46.563Z,20.3
2022-10-14T09:49:49.058Z,20.3
2022-10-14T09:50:51.559Z,20.4
2022-10-14T09:51:53.767Z,20.2
2022-10-14T09:52:56.251Z,20.4
2022-10-14T09:53:58.775Z,20.4
2022-10-14T09:55:01.463Z,20.4
2022-10-14T09:56:03.676Z,20.5
2022-10-14T09:57:05.813Z,20.3
2022-10-14T09:58:08.003Z,20.3
2022-10-14T09:59:10.494Z,20.4
2022-10-14T10:00:12.681Z,20.2
2022-10-14T10:01:15.184Z,20.4
2022-10-14T10:02:17.099Z,20.4
2022-10-14T10:03:19.305Z,20.4
2022-10-14T10:04:21.230Z,20.4
2022-10-14T10:05:23.437Z,20.4
2022-10-14T10:06:25.641Z,20.3
2022-10-14T10:07:27.589Z,20.5
2022-10-14T10:08:29.798Z,20.4
2022-10-14T10:09:32.309Z,20.4
2022-10-14T10:10:34.851Z,20.4
2022-10-14T10:11:37.347Z,20.4
2022-10-14T10:12:39.328Z,20.3
2022-10-14T10:13:41.595Z,20.4
2022-10-14T10:14:44.099Z,20.3
2022-10-14T10:15:46.303Z,20.4
2022-10-14T10:16:48.898Z,20.3
2022-10-14T10:17:54.864Z,20.3
2022-10-14T10:18:57.077Z,20.4
2022-10-14T10:19:59.547Z,20.2
2022-10-14T10:21:01.780Z,20.4
2022-10-14T10:22:04.253Z,20.4
2022-10-14T10:23:06.728Z,20.4
2022-10-14T10:24:08.902Z,20.3
2022-10-14T10:25:11.403Z,20.4
2022-10-14T10:26:13.938Z,20.4
2022-10-14T10:27:16.414Z,20.3
2022-10-14T10:28:18.972Z,20.3
2022-10-14T10:29:21.202Z,20.2
2022-10-14T10:30:23.706Z,20.4
2022-10-14T10:31:26.020Z,20.4
2022-10-14T10:32:28.984Z,20.4
2022-10-14T10:33:31.460Z,20.3
2022-10-14T10:34:33.955Z,20.3
2022-10-14T10:35:36.441Z,20.3
2022-10-14T10:36:38.939Z,20.5
2022-10-14T10:37:40.842Z,20.4
2022-10-14T10:38:43.043Z,20.2
2022-10-14T10:39:45.276Z,20.4
2022-10-14T10:40:47.814Z,20.5
2022-10-14T10:41:50.433Z,20.3
2022-10-14T10:42:52.628Z,20.3
2022-10-14T10:43:54.642Z,20.3
2022-10-14T10:44:57.137Z,20.3
2022-10-14T10:45:59.162Z,20.4
2022-10-14T10:47:01.714Z,20.3
2022-10-14T10:48:03.696Z,20.3
2022-10-14T10:49:06.226Z,20.5
2022-10-14T10:50:08.470Z,20.3
2022-10-14T10:51:10.462Z,20.4
2022-10-14T10:53:17.981Z,20.4
2022-10-14T10:54:19.974Z,20.3
2022-10-14T10:55:22.544Z,20.4
2022-10-14T10:56:24.570Z,20.2
2022-10-14T10:57:27.209Z,20.5
2022-10-14T10:58:29.477Z,20.4
2022-10-14T10:59:31.712Z,20.3
2022-10-14T11:00:33.694Z,20.3
2022-10-14T11:01:36.411Z,20.3
2022-10-14T11:02:39.297Z,20.3
2022-10-14T11:03:41.545Z,20.3
2022-10-14T11:04:43.808Z,20.4
2022-10-14T11:05:45.496Z,20.3
2022-10-14T11:06:48.023Z,20.5
2022-10-14T11:07:50.611Z,20.2
2022-10-14T11:08:52.609Z,20.3
2022-10-14T11:09:55.239Z,20.5
2022-10-14T11:10:57.207Z,20.4
2022-10-14T11:11:59.770Z,20.4
2022-10-14T11:13:02.431Z,20.4
2022-10-14T11:14:04.693Z,20.4
2022-10-14T11:15:06.782Z,20.4
2022-10-14T11:16:09.183Z,20.4
2022-10-14T11:17:11.547Z,20.3
2022-10-14T11:18:14.454Z,20.4
2022-10-14T11:19:16.145Z,20.3
2022-10-14T11:20:18.678Z,20.3
2022-10-14T11:21:21.214Z,20.2
2022-10-14T11:22:24.224Z,20.4
2022-10-14T11:23:27.290Z,20.3
2022-10-14T11:24:29.820Z,20.3
2022-10-14T11:25:32.079Z,20.3
2022-10-14T11:27:38.373Z,20.4
2022-10-14T11:28:40.925Z,20.4
2022-10-14T11:29:43.659Z,20.2
2022-10-14T11:30:46.129Z,20.5
2022-10-14T11:31:48.614Z,20.2
2022-10-14T11:32:51.114Z,20.4
2022-10-14T11:33:53.310Z,20.4
2022-10-14T11:34:55.786Z,20.3
2022-10-14T11:35:57.970Z,20.6
2022-10-14T11:36:59.901Z,20.3
2022-10-14T11:38:02.381Z,20.2
2022-10-14T11:39:04.597Z,20.4
2022-10-14T11:40:07.070Z,20.3
2022-10-14T11:41:08.979Z,20.5
2022-10-14T11:42:11.457Z,20.3
2022-10-14T11:43:14.066Z,20.4
2022-10-14T11:44:16.609Z,20.3
2022-10-14T11:46:24.082Z,20.3
2022-10-14T11:47:26.254Z,20.4
2022-10-14T11:48:28.737Z,20.4
2022-10-14T11:49:30.397Z,20.4
2022-10-14T11:50:32.306Z,20.4
2022-10-14T11:51:36.513Z,20.2
2022-10-14T11:52:38.718Z,20.4
2022-10-14T11:53:41.212Z,20.6
2022-10-14T11:54:43.437Z,20.4
2022-10-14T11:55:45.426Z,20.4
2022-10-14T11:56:47.903Z,20.5
2022-10-14T11:57:49.813Z,20.3
2022-10-14T11:58:52.330Z,20.2
2022-10-14T11:59:54.888Z,20.5
2022-10-14T12:00:56.810Z,20.4
2022-10-14T12:01:58.751Z,20.4
2022-10-14T12:03:01.461Z,20.4
2022-10-14T12:04:04.245Z,20.3
2022-10-14T12:05:06.437Z,20.2
2022-10-14T12:06:08.660Z,20.4
2022-10-14T12:07:10.588Z,20.4
2022-10-14T12:08:12.790Z,20.3
2022-10-14T12:09:15.339Z,20.4
2022-10-14T12:10:17.717Z,20.2
2022-10-14T12:11:19.925Z,20.3
2022-10-14T12:12:22.867Z,20.2
2022-10-14T12:13:26.621Z,20.4
2022-10-14T12:14:29.133Z,20.3
2022-10-14T12:16:33.811Z,20.2
2022-10-14T12:17:36.295Z,20.5
2022-10-14T12:18:38.541Z,20.2
2022-10-14T12:19:40.215Z,20.6
2022-10-14T12:20:42.716Z,20.4
2022-10-14T12:22:49.905Z,20.4
2022-10-14T12:23:52.116Z,20.3
2022-10-14T12:24:54.855Z,20.4
2022-10-14T12:25:57.352Z,20.4
2022-10-14T12:26:59.532Z,20.4
2022-10-14T12:28:01.469Z,20.2
2022-10-14T12:29:04.467Z,20.3
2022-10-14T12:30:07.022Z,20.4
2022-10-14T12:31:09.574Z,20.4
2022-10-14T12:32:11.765Z,20.4
2022-10-14T12:34:19.253Z,20.4
2022-10-14T12:35:21.740Z,20.4
2022-10-14T12:36:24.333Z,20.3
2022-10-14T12:38:31.966Z,20.3
2022-10-14T12:39:34.464Z,20.4
2022-10-14T12:40:36.966Z,20.3
2022-10-14T12:41:39.178Z,20.4
2022-10-14T12:42:41.371Z,20.4
2022-10-14T12:43:43.586Z,20.2
2022-10-14T12:44:50.033Z,20.2
2022-10-14T12:45:52.256Z,20.4
2022-10-14T12:46:54.809Z,20.2
2022-10-14T12:47:57.304Z,20.3
2022-10-14T12:48:59.792Z,20.3
2022-10-14T12:50:01.996Z,20.5
2022-10-14T12:51:03.918Z,20.5
2022-10-14T12:52:06.130Z,20.4
2022-10-14T12:53:08.327Z,20.3
2022-10-14T12:54:10.818Z,20.4
2022-10-14T12:55:12.991Z,20.4
2022-10-14T12:56:15.519Z,20.3
2022-10-14T12:57:18.074Z,20.4
2022-10-14T12:58:21.715Z,20.3
2022-10-14T12:59:23.625Z,20.3
2022-10-14T13:00:25.808Z,20.3
2022-10-14T13:02:33.028Z,20.4
2022-10-14T13:03:35.793Z,20.4
2022-10-14T13:04:38.273Z,20.3
2022-10-14T13:05:40.789Z,20.3
2022-10-14T13:06:43.636Z,20.3
2022-10-14T13:07:47.590Z,20.3
2022-10-14T13:08:51.793Z,20.3
2022-10-14T13:09:54.027Z,20.4
2022-10-14T13:10:56.227Z,20.3
2022-10-14T13:11:58.441Z,20.5
2022-10-14T13:13:01.076Z,20.3
2022-10-14T13:14:03.803Z,20.3
2022-10-14T13:15:05.710Z,20.3
2022-10-14T13:16:07.929Z,20.2
2022-10-14T13:18:15.428Z,20.4
2022-10-14T13:19:17.947Z,20.4
2022-10-14T13:20:19.875Z,20.3
2022-10-14T13:21:21.515Z,20.2
2022-10-14T13:22:23.987Z,20.2
2022-10-14T13:23:29.953Z,20.4
2022-10-14T13:24:32.432Z,20.2
2022-10-14T13:25:34.718Z,20.4
2022-10-14T13:26:37.306Z,20.3
2022-10-14T13:27:39.542Z,20.4
2022-10-14T13:28:42.206Z,20.4
2022-10-14T13:29:45.129Z,20.3
2022-10-14T13:30:47.008Z,20.3
2022-10-14T13:31:49.202Z,20.3
2022-10-14T13:32:51.676Z,20.3
2022-10-14T13:33:54.181Z,20.4
2022-10-14T13:34:56.703Z,20.2
2022-10-14T13:35:59.465Z,20.3
2022-10-14T13:37:01.656Z,20.3
2022-10-14T13:38:04.129Z,20.3
2022-10-14T13:39:06.032Z,20.3
2022-10-14T13:40:08.332Z,20.3
2022-10-14T13:41:11.077Z,20.2
2022-10-14T13:42:12.976Z,20.4
2022-10-14T13:43:15.184Z,20.2
2022-10-14T13:44:17.760Z,20.3
2022-10-14T13:45:19.687Z,20.4
2022-10-14T13:46:21.888Z,20.4
2022-10-14T13:47:24.694Z,20.5
2022-10-14T13:48:27.503Z,20.4
2022-10-14T13:49:30.066Z,20.2
2022-10-14T13:50:32.595Z,20
2022-10-14T13:52:40.058Z,20.3
2022-10-14T13:53:44.214Z,20.3
2022-10-14T13:54:46.414Z,20.2
2022-10-14T14:01:13.978Z,20.2
2022-10-14T14:02:16.613Z,20.3
2022-10-14T14:03:18.828Z,20.3
2022-10-14T14:04:21.037Z,20.3
2022-10-14T14:05:23.625Z,20.3
2022-10-14T14:06:27.772Z,20.3
2022-10-14T14:09:41.894Z,20.3
2022-10-14T14:11:49.389Z,20.3
2022-10-14T14:12:51.413Z,20.4
2022-10-14T14:14:58.906Z,20.4
2022-10-14T14:16:01.422Z,20.4
2022-10-14T14:17:04.165Z,20.3
2022-10-14T14:18:06.586Z,20.4
2022-10-14T14:19:10.572Z,20.2
2022-10-14T14:20:12.813Z,20.3
2022-10-14T14:21:15.256Z,20.3
2022-10-14T14:22:18.138Z,20.3